Matthews, NC

10:57 PM EDT on September 04, 2015 (GMT -0400)
St. Clair Subdivision | | Change Station
CLOSE
Current Station
Personal Weather Station
Location: Matthews, NC
Elevation: 663 ft
Nearby Weather Stations

Elev 663 ft 35.16 °N, 80.73 °W | Updated 6 minutes ago

Partly Cloudy
Partly Cloudy
71.0 °F
Feels Like 71.0 °F
N
0.0
Wind Variable Wind from NE
Gusts 1.0 mph

Today
High -- | Low -- °F
--% Chance of Precip.
Yesterday
High -- | Low -- °F
Precip. -- in
6:57 AM 7:45 PM
Waning Gibbous, 53% visible
Pressure 30.06 in
Visibility 10.0 miles
Clouds Few 16000 ft
Scattered Clouds 25000 ft
Dew Point 66 °F
Humidity 85%
Rainfall Not available.
Snow Depth Not available.
UV 0 out of 12
Pollen 9.50 out of 12
Air Quality Not available.
Flu Activity Not available.
METAR KCLT 050252Z 02004KT 10SM FEW160 SCT250 24/18 A3009 RMK AO2 SLP178 T02390178 51025
Pressure 30.06 in
Visibility 10.0 miles
Clouds Few 16000 ft
Scattered Clouds 25000 ft
Dew Point 66 °F
Humidity 85%
Rainfall Not available.
Snow Depth Not available.
UV 0 out of 12
Pollen 9.50 out of 12
Air Quality Not available.
Flu Activity Not available.
METAR KCLT 050252Z 02004KT 10SM FEW160 SCT250 24/18 A3009 RMK AO2 SLP178 T02390178 51025

10-Day Weather Forecast

×

Almanac

Astronomy

Sep. 04, 2015 Rise Set
Actual Time
Civil Twilight
Nautical Twilight
Astronomical Twilight
Moon
Length of Visible Light
Length of Day
Tomorrow will be .
, % of the Moon is Illuminated

Today's Extremes

State Highs State Lows

Community

WunderPhotos

Upload Photos

1,852,392 photos uploaded!

WunderBlogs® & News

Nearby

Air Quality

  Air Quality AQ Index Pollutant
Not available.

Snow Depth

Station Depth Elevation

Earthquake Activity

City Distance Mag. Time & Date
Minimum magnitude displayed is 2.5.

Coastal Water Temperatures

Place Temperature

Stations

Nearby Weather Stations

Station Location Temp. Windchill Dew Point Humidity Wind Precip. Elev Updated Type